createdAt,value
2022-12-18T00:01:38.330Z,-4.58
2022-12-18T00:04:08.824Z,-5.54
2022-12-18T00:06:36.653Z,-5.37
2022-12-18T00:09:05.080Z,-5.33
2022-12-18T00:11:34.787Z,-5.97
2022-12-18T00:14:02.337Z,-5.47
2022-12-18T00:16:34.388Z,-5.12
2022-12-18T00:19:02.428Z,-5.37
2022-12-18T00:21:31.052Z,-5.37
2022-12-18T00:23:59.390Z,-4.40
2022-12-18T00:26:33.010Z,-4.62
2022-12-18T00:29:06.850Z,-4.44
2022-12-18T00:31:34.252Z,-4.49
2022-12-18T00:34:01.954Z,-4.38
2022-12-18T00:36:33.016Z,-4.03
2022-12-18T00:39:01.682Z,-4.69
2022-12-18T00:41:48.206Z,-5.18
2022-12-18T00:44:18.162Z,-4.40
2022-12-18T00:46:47.428Z,-5.22
2022-12-18T00:49:15.507Z,-4.78
2022-12-18T00:51:42.259Z,-4.74
2022-12-18T00:54:09.912Z,-4.45
2022-12-18T00:56:45.743Z,-5.43
2022-12-18T00:59:16.287Z,-5.10
2022-12-18T01:01:43.773Z,-5.02
2022-12-18T01:04:10.711Z,-5.34
2022-12-18T01:06:37.831Z,-5.36
2022-12-18T01:09:04.750Z,-5.21
2022-12-18T01:11:31.907Z,-4.90
2022-12-18T01:13:58.673Z,-4.22
2022-12-18T01:16:25.435Z,-4.33
2022-12-18T01:18:55.136Z,-4.00
2022-12-18T01:21:23.509Z,-4.02
2022-12-18T01:23:56.017Z,-4.14
2022-12-18T01:26:25.298Z,-3.84
2022-12-18T01:28:52.386Z,-3.88
2022-12-18T01:31:34.020Z,-3.84
2022-12-18T01:34:04.772Z,-3.66
2022-12-18T01:36:35.341Z,-3.90
2022-12-18T01:39:12.324Z,-3.69
2022-12-18T01:42:01.394Z,-4.27
2022-12-18T01:45:05.351Z,-4.09
2022-12-18T01:48:02.068Z,-4.52
2022-12-18T01:50:40.680Z,-4.51
2022-12-18T01:53:24.065Z,-4.17
2022-12-18T01:55:57.184Z,-4.02
2022-12-18T01:58:57.697Z,-4.80
2022-12-18T02:01:26.305Z,-5.04
2022-12-18T02:03:53.854Z,-4.13
2022-12-18T02:06:34.302Z,-4.60
2022-12-18T02:09:15.794Z,-4.25
2022-12-18T02:12:14.998Z,-4.24
2022-12-18T02:14:53.185Z,-4.73
2022-12-18T02:17:55.428Z,-4.56
2022-12-18T02:20:43.773Z,-4.18
2022-12-18T02:24:07.532Z,-4.00
2022-12-18T02:26:44.690Z,-3.96
2022-12-18T02:29:28.954Z,-4.02
2022-12-18T02:32:00.935Z,-3.98
2022-12-18T02:34:32.563Z,-4.01
2022-12-18T02:37:04.850Z,-3.63
2022-12-18T02:39:34.512Z,-4.33
2022-12-18T02:42:08.770Z,-3.71
2022-12-18T02:44:47.919Z,-3.84
2022-12-18T02:47:23.620Z,-3.97
2022-12-18T02:50:25.279Z,-4.77
2022-12-18T02:53:37.264Z,-4.67
2022-12-18T02:56:23.408Z,-4.73
2022-12-18T02:58:53.548Z,-5.09
2022-12-18T03:01:53.814Z,-4.69
2022-12-18T03:04:31.303Z,-4.59
2022-12-18T03:07:03.843Z,-5.18
2022-12-18T03:09:40.795Z,-5.41
2022-12-18T03:12:24.999Z,-4.86
2022-12-18T03:15:17.274Z,-5.01
2022-12-18T03:17:57.688Z,-4.71
2022-12-18T03:20:30.152Z,-5.79
2022-12-18T03:23:05.494Z,-5.29
2022-12-18T03:25:35.617Z,-5.16
2022-12-18T03:28:06.597Z,-4.64
2022-12-18T03:30:38.319Z,-4.96
2022-12-18T03:33:48.200Z,-5.80
2022-12-18T03:36:16.156Z,-5.70
2022-12-18T03:38:43.114Z,-5.38
2022-12-18T03:41:42.028Z,-5.60
2022-12-18T03:44:33.493Z,-4.98
2022-12-18T03:47:04.532Z,-4.75
2022-12-18T03:49:46.329Z,-4.73
2022-12-18T03:52:34.110Z,-4.86
2022-12-18T03:55:04.803Z,-5.54
2022-12-18T03:57:33.898Z,-5.37
2022-12-18T04:00:13.690Z,-4.86
2022-12-18T04:03:05.866Z,-4.32
2022-12-18T04:05:41.723Z,-4.32
2022-12-18T04:08:08.928Z,-4.55
2022-12-18T04:10:38.912Z,-4.18
2022-12-18T04:13:05.738Z,-4.35
2022-12-18T04:15:37.063Z,-3.99
2022-12-18T04:18:05.834Z,-4.06
2022-12-18T04:20:39.646Z,-4.62
2022-12-18T04:23:06.339Z,-4.86
2022-12-18T04:25:33.369Z,-4.72
2022-12-18T04:28:09.643Z,-4.46
2022-12-18T04:30:38.374Z,-4.19
2022-12-18T04:33:11.295Z,-4.83
2022-12-18T04:35:40.504Z,-4.44
2022-12-18T04:38:11.792Z,-4.78
2022-12-18T04:40:39.321Z,-4.24
2022-12-18T04:43:14.637Z,-3.92
2022-12-18T04:45:41.413Z,-3.70
2022-12-18T04:48:08.062Z,-3.84
2022-12-18T04:50:34.929Z,-4.11
2022-12-18T04:53:01.920Z,-4.30
2022-12-18T04:55:29.241Z,-3.86
2022-12-18T04:57:56.086Z,-3.82
2022-12-18T05:00:23.035Z,-3.80
2022-12-18T05:02:49.819Z,-3.45
2022-12-18T05:05:17.008Z,-3.21
2022-12-18T05:07:43.792Z,-3.67
2022-12-18T05:10:10.782Z,-3.44
2022-12-18T05:12:58.909Z,-3.28
2022-12-18T05:15:31.944Z,-3.29
2022-12-18T05:17:59.646Z,-3.25
2022-12-18T05:20:27.717Z,-3.57
2022-12-18T05:22:55.550Z,-3.34
2022-12-18T05:25:23.088Z,-3.70
2022-12-18T05:27:50.298Z,-3.61
2022-12-18T05:30:17.394Z,-3.55
2022-12-18T05:32:44.197Z,-3.27
2022-12-18T05:35:12.115Z,-3.66
2022-12-18T05:37:42.889Z,-4.06
2022-12-18T05:40:11.968Z,-4.20
2022-12-18T05:42:39.031Z,-4.07
2022-12-18T05:45:06.767Z,-4.89
2022-12-18T05:47:33.464Z,-4.21
2022-12-18T05:50:00.250Z,-3.93
2022-12-18T05:52:26.930Z,-3.83
2022-12-18T05:54:53.704Z,-4.31
2022-12-18T05:57:20.919Z,-4.63
2022-12-18T05:59:47.611Z,-4.20
2022-12-18T06:02:14.376Z,-4.51
2022-12-18T06:04:41.284Z,-4.25
2022-12-18T06:07:08.152Z,-4.90
2022-12-18T06:09:34.880Z,-4.76
2022-12-18T06:12:01.537Z,-4.89
2022-12-18T06:14:28.665Z,-5.02
2022-12-18T06:16:55.359Z,-5.59
2022-12-18T06:19:22.369Z,-4.31
2022-12-18T06:21:50.120Z,-4.40
2022-12-18T06:24:16.981Z,-4.01
2022-12-18T06:26:43.711Z,-4.99
2022-12-18T06:29:10.446Z,-4.23
2022-12-18T06:31:37.223Z,-4.65
2022-12-18T06:34:05.263Z,-4.93
2022-12-18T06:36:32.448Z,-4.76
2022-12-18T06:39:00.192Z,-5.20
2022-12-18T06:41:27.139Z,-4.36
2022-12-18T06:43:59.376Z,-4.71
2022-12-18T06:46:26.434Z,-4.53
2022-12-18T06:48:53.675Z,-4.96
2022-12-18T06:51:24.728Z,-5.27
2022-12-18T06:53:51.540Z,-4.63
2022-12-18T06:56:18.430Z,-3.95
2022-12-18T06:58:45.247Z,-3.71
2022-12-18T07:01:13.630Z,-4.82
2022-12-18T07:03:42.634Z,-4.69
2022-12-18T07:06:20.041Z,-4.47
2022-12-18T07:08:47.750Z,-5.02
2022-12-18T07:11:15.237Z,-5.42
2022-12-18T07:13:43.041Z,-5.71
2022-12-18T07:16:20.775Z,-5.34
2022-12-18T07:18:49.513Z,-5.41
2022-12-18T07:21:19.912Z,-5.50
2022-12-18T07:23:48.725Z,-4.86
2022-12-18T07:26:19.605Z,-5.08
2022-12-18T07:28:47.024Z,-4.73
2022-12-18T07:31:17.668Z,-5.46
2022-12-18T07:33:44.732Z,-5.62
2022-12-18T07:36:11.975Z,-5.17
2022-12-18T07:38:39.470Z,-5.48
2022-12-18T07:41:12.328Z,-4.85
2022-12-18T07:43:40.946Z,-4.16
2022-12-18T07:46:11.057Z,-4.00
2022-12-18T07:48:43.457Z,-4.78
2022-12-18T07:51:13.392Z,-4.91
2022-12-18T07:53:41.813Z,-4.16
2022-12-18T07:56:27.320Z,-4.55
2022-12-18T07:58:55.402Z,-4.97
2022-12-18T08:01:22.303Z,-4.95
2022-12-18T08:03:49.478Z,-4.21
2022-12-18T08:06:19.414Z,-4.82
2022-12-18T08:08:49.344Z,-5.20
2022-12-18T08:11:16.852Z,-4.14
2022-12-18T08:13:43.666Z,-4.01
2022-12-18T08:16:10.714Z,-3.92
2022-12-18T08:18:38.985Z,-3.38
2022-12-18T08:21:11.129Z,-3.37
2022-12-18T08:23:42.670Z,-3.60
2022-12-18T08:26:12.012Z,-4.88
2022-12-18T08:28:39.504Z,-4.51
2022-12-18T08:31:07.102Z,-4.15
2022-12-18T08:33:34.910Z,-4.16
2022-12-18T08:36:02.644Z,-4.30
2022-12-18T08:38:29.643Z,-3.80
2022-12-18T08:41:26.118Z,-4.84
2022-12-18T08:44:11.163Z,-4.12
2022-12-18T08:46:41.624Z,-3.74
2022-12-18T08:49:11.724Z,-3.90
2022-12-18T08:51:39.374Z,-3.20
2022-12-18T08:54:11.629Z,-2.87
2022-12-18T08:56:38.449Z,-3.07
2022-12-18T08:59:05.396Z,-3.04
2022-12-18T09:01:32.361Z,-3.37
2022-12-18T09:04:00.269Z,-3.14
2022-12-18T09:06:27.487Z,-2.89
2022-12-18T09:08:54.372Z,-4.16
2022-12-18T09:11:26.178Z,-3.50
2022-12-18T09:13:54.795Z,-3.45
2022-12-18T09:16:26.142Z,-3.26
2022-12-18T09:19:00.531Z,-2.57
2022-12-18T09:21:31.440Z,-2.33
2022-12-18T09:24:01.142Z,-2.51
2022-12-18T09:26:28.281Z,-2.66
2022-12-18T09:28:55.139Z,-1.90
2022-12-18T09:31:24.898Z,-1.36
2022-12-18T09:33:52.574Z,-2.81
2022-12-18T09:36:20.381Z,-3.60
2022-12-18T09:38:48.496Z,-2.85
2022-12-18T09:41:42.570Z,-1.88
2022-12-18T09:44:27.236Z,-2.25
2022-12-18T09:47:21.128Z,-3.58
2022-12-18T09:49:53.708Z,-3.12
2022-12-18T09:52:49.068Z,-2.55
2022-12-18T09:55:36.891Z,-2.68
2022-12-18T09:58:29.772Z,-3.54
2022-12-18T10:00:57.176Z,-3.73
2022-12-18T10:03:24.262Z,-4.58
2022-12-18T10:06:05.748Z,-4.86
2022-12-18T10:08:41.969Z,-5.03
2022-12-18T10:11:40.918Z,-5.10
2022-12-18T10:14:46.383Z,-4.38
2022-12-18T10:17:46.571Z,-3.60
2022-12-18T10:20:46.201Z,-2.61
2022-12-18T10:23:52.528Z,-2.45
2022-12-18T10:26:19.483Z,-1.64
2022-12-18T10:28:47.942Z,-1.92
2022-12-18T10:31:24.580Z,-1.72
2022-12-18T10:33:52.170Z,-1.71
2022-12-18T10:36:18.844Z,-2.33
2022-12-18T10:38:45.607Z,-3.40
2022-12-18T10:41:18.400Z,-2.27
2022-12-18T10:43:45.805Z,-1.96
2022-12-18T10:46:12.431Z,-1.90
2022-12-18T10:48:48.291Z,-2.09
2022-12-18T10:51:25.676Z,-2.08
2022-12-18T10:54:15.871Z,-2.54
2022-12-18T10:56:43.696Z,-3.42
2022-12-18T10:59:14.607Z,-2.67
2022-12-18T11:01:57.490Z,-4.22
2022-12-18T11:04:27.875Z,-2.94
2022-12-18T11:07:01.376Z,-1.97
2022-12-18T11:09:33.960Z,-2.27
2022-12-18T11:12:23.865Z,-1.84
2022-12-18T11:14:58.511Z,-2.12
2022-12-18T11:17:35.856Z,-2.80
2022-12-18T11:20:21.102Z,-1.60
2022-12-18T11:23:03.909Z,-0.85
2022-12-18T11:25:35.005Z,-0.91
2022-12-18T11:28:25.098Z,-1.20
2022-12-18T11:31:38.629Z,-0.07
2022-12-18T11:34:29.205Z,-1.44
2022-12-18T11:37:00.642Z,-1.25
2022-12-18T11:39:53.727Z,-1.22
2022-12-18T11:42:43.324Z,-1.73
2022-12-18T11:45:13.814Z,-2.02
2022-12-18T11:48:10.532Z,-2.39
2022-12-18T11:50:37.502Z,-1.70
2022-12-18T11:53:06.500Z,-1.52
2022-12-18T11:55:56.842Z,-1.10
2022-12-18T11:58:59.401Z,-1.10
2022-12-18T12:01:49.762Z,-0.31
2022-12-18T12:04:46.984Z,0.33
2022-12-18T12:07:36.122Z,0.41
2022-12-18T12:10:18.929Z,-0.56
2022-12-18T12:20:29.758Z,-2.75
2022-12-18T12:23:37.907Z,-1.66
2022-12-18T12:26:19.976Z,-1.83
2022-12-18T12:29:19.412Z,-1.26
2022-12-18T12:32:50.894Z,-1.58
2022-12-18T12:36:16.954Z,-2.16
2022-12-18T12:38:55.771Z,-2.38
2022-12-18T12:41:53.117Z,-2.09
2022-12-18T12:44:32.974Z,-1.35
2022-12-18T12:47:14.965Z,-1.89
2022-12-18T12:49:50.925Z,-1.74
2022-12-18T12:53:07.975Z,-1.44
2022-12-18T12:58:55.639Z,-1.76
2022-12-18T13:02:06.115Z,-3.05
2022-12-18T13:05:28.182Z,-2.75
2022-12-18T13:08:18.872Z,-2.67
2022-12-18T13:10:51.065Z,-3.64
2022-12-18T13:13:26.606Z,-3.29
2022-12-18T13:16:14.729Z,-3.31
2022-12-18T13:19:00.773Z,-2.70
2022-12-18T13:22:49.450Z,-3.36
2022-12-18T13:25:45.090Z,-2.85
2022-12-18T13:28:56.817Z,-2.25
2022-12-18T13:31:50.635Z,-1.71
2022-12-18T13:34:29.504Z,-2.15
2022-12-18T13:37:59.308Z,-1.45
2022-12-18T13:40:52.950Z,-3.50
2022-12-18T13:46:22.375Z,-4.09
2022-12-18T13:49:07.515Z,-4.08
2022-12-18T13:51:36.437Z,-3.97
2022-12-18T13:54:29.778Z,-3.28
2022-12-18T13:56:57.485Z,-3.15
2022-12-18T13:59:36.755Z,-2.98
2022-12-18T14:02:28.154Z,-2.88
2022-12-18T14:04:56.423Z,-3.83
2022-12-18T14:07:27.095Z,-3.97
2022-12-18T14:12:57.847Z,-4.21
2022-12-18T14:15:27.884Z,-3.73
2022-12-18T14:17:59.770Z,-3.82
2022-12-18T14:20:32.583Z,-4.51
2022-12-18T14:23:01.176Z,-4.46
2022-12-18T14:25:31.484Z,-5.21
2022-12-18T14:28:08.387Z,-4.81
2022-12-18T14:30:43.901Z,-4.79
2022-12-18T14:33:17.094Z,-4.49
2022-12-18T14:36:03.236Z,-5.76
2022-12-18T14:38:35.529Z,-4.66
2022-12-18T14:41:05.389Z,-4.08
2022-12-18T14:43:39.295Z,-5.00
2022-12-18T14:46:33.954Z,-4.40
2022-12-18T14:49:35.564Z,-3.93
2022-12-18T14:52:07.251Z,-3.71
2022-12-18T14:54:38.244Z,-4.58
2022-12-18T14:57:26.260Z,-4.77
2022-12-18T14:59:53.529Z,-4.58
2022-12-18T15:02:27.498Z,-4.36
2022-12-18T15:05:26.495Z,-4.05
2022-12-18T15:07:56.592Z,-4.27
2022-12-18T15:10:24.597Z,-4.04
2022-12-18T15:12:57.208Z,-4.99
2022-12-18T15:15:40.333Z,-5.63
2022-12-18T15:18:11.456Z,-5.75
2022-12-18T15:20:57.295Z,-5.14
2022-12-18T15:23:25.324Z,-5.04
2022-12-18T15:26:11.344Z,-5.90
2022-12-18T15:29:00.855Z,-5.48
2022-12-18T15:31:35.768Z,-5.45
2022-12-18T15:34:13.341Z,-5.27
2022-12-18T15:36:40.795Z,-5.96
2022-12-18T15:39:07.605Z,-6.33
2022-12-18T15:41:36.503Z,-5.93
2022-12-18T15:44:18.082Z,-5.86
2022-12-18T15:46:44.939Z,-5.98
2022-12-18T15:49:11.633Z,-5.45
2022-12-18T15:51:39.680Z,-5.57
2022-12-18T15:54:14.345Z,-6.34
2022-12-18T15:56:59.977Z,-6.42
2022-12-18T15:59:27.387Z,-6.01
2022-12-18T16:01:54.270Z,-5.91
2022-12-18T16:04:23.197Z,-5.88
2022-12-18T16:07:13.706Z,-5.62
2022-12-18T16:09:37.882Z,-5.72
2022-12-18T16:12:05.507Z,-6.05
2022-12-18T16:14:33.238Z,-6.07
2022-12-18T16:17:04.432Z,-5.39
2022-12-18T16:19:31.391Z,-5.83
2022-12-18T16:21:59.737Z,-5.78
2022-12-18T16:24:30.639Z,-6.02
2022-12-18T16:27:00.396Z,-5.80
2022-12-18T16:29:29.046Z,-5.60
2022-12-18T16:32:00.836Z,-5.33
2022-12-18T16:34:35.993Z,-5.46
2022-12-18T16:37:06.694Z,-4.52
2022-12-18T16:39:38.225Z,-5.48
2022-12-18T16:42:20.314Z,-5.10
2022-12-18T16:44:49.142Z,-5.09
2022-12-18T16:47:16.577Z,-5.02
2022-12-18T16:49:45.869Z,-5.00
2022-12-18T16:52:13.763Z,-5.46
2022-12-18T16:54:40.427Z,-5.22
2022-12-18T16:57:07.143Z,-5.41
2022-12-18T16:59:35.335Z,-5.67
2022-12-18T17:02:03.061Z,-5.17
2022-12-18T17:04:29.927Z,-4.81
2022-12-18T17:06:56.970Z,-4.88
2022-12-18T17:09:26.551Z,-4.87
2022-12-18T17:11:54.637Z,-5.47
2022-12-18T17:14:24.674Z,-5.11
2022-12-18T17:17:19.234Z,-5.33
2022-12-18T17:19:41.554Z,-5.45
2022-12-18T17:22:08.533Z,-4.53
2022-12-18T17:24:35.846Z,-4.97
2022-12-18T17:27:04.417Z,-4.73
2022-12-18T17:29:31.178Z,-4.40
2022-12-18T17:31:59.712Z,-4.70
2022-12-18T17:34:27.939Z,-4.37
2022-12-18T17:36:54.958Z,-4.37
2022-12-18T17:39:21.865Z,-4.58
2022-12-18T17:41:50.306Z,-4.70
2022-12-18T17:44:18.457Z,-5.13
2022-12-18T17:46:46.192Z,-5.14
2022-12-18T17:49:14.160Z,-5.01
2022-12-18T17:51:43.005Z,-4.62
2022-12-18T17:54:11.030Z,-4.57
2022-12-18T17:56:39.122Z,-4.99
2022-12-18T17:59:07.065Z,-5.40
2022-12-18T18:01:34.074Z,-5.52
2022-12-18T18:04:01.990Z,-5.51
2022-12-18T18:06:28.919Z,-5.61
2022-12-18T18:08:57.454Z,-6.14
2022-12-18T18:11:43.914Z,-6.63
2022-12-18T18:14:19.561Z,-6.94
2022-12-18T18:16:49.340Z,-6.82
2022-12-18T18:19:20.943Z,-6.58
2022-12-18T18:21:50.123Z,-6.27
2022-12-18T18:24:20.202Z,-6.62
2022-12-18T18:26:47.075Z,-6.35
2022-12-18T18:29:23.765Z,-5.86
2022-12-18T18:31:53.166Z,-5.24
2022-12-18T18:34:29.529Z,-5.88
2022-12-18T18:36:59.660Z,-6.44
2022-12-18T18:39:27.151Z,-6.08
2022-12-18T18:41:54.132Z,-6.00
2022-12-18T18:44:25.611Z,-5.87
2022-12-18T18:46:57.114Z,-5.78
2022-12-18T18:49:27.412Z,-5.86
2022-12-18T18:51:57.418Z,-5.59
2022-12-18T18:54:25.574Z,-5.52
2022-12-18T18:59:39.133Z,-5.64
2022-12-18T19:02:07.396Z,-5.43
2022-12-18T19:04:34.523Z,-5.78
2022-12-18T19:07:01.597Z,-5.77
2022-12-18T19:09:28.741Z,-5.90
2022-12-18T19:12:14.375Z,-5.74
2022-12-18T19:14:44.053Z,-5.63
2022-12-18T19:17:10.813Z,-4.90
2022-12-18T19:19:37.707Z,-6.27
2022-12-18T19:22:06.219Z,-5.14
2022-12-18T19:24:33.067Z,-5.28
2022-12-18T19:27:00.783Z,-5.32
2022-12-18T19:29:27.695Z,-6.08
2022-12-18T19:31:54.607Z,-5.81
2022-12-18T19:34:21.517Z,-6.07
2022-12-18T19:36:48.522Z,-6.18
2022-12-18T19:39:19.184Z,-6.19
2022-12-18T19:41:46.864Z,-5.52
2022-12-18T19:44:16.223Z,-5.09
2022-12-18T19:46:46.007Z,-5.08
2022-12-18T19:49:18.093Z,-5.36
2022-12-18T19:51:45.815Z,-5.58
2022-12-18T19:54:16.980Z,-5.15
2022-12-18T19:56:45.713Z,-5.62
2022-12-18T19:59:13.377Z,-5.26
2022-12-18T20:01:41.095Z,-5.01
2022-12-18T20:04:08.080Z,-4.90
2022-12-18T20:06:49.759Z,-4.10
2022-12-18T20:09:17.887Z,-3.84
2022-12-18T20:11:46.431Z,-5.43
2022-12-18T20:14:16.860Z,-5.80
2022-12-18T20:16:49.052Z,-5.69
2022-12-18T20:19:15.908Z,-6.11
2022-12-18T20:21:43.096Z,-5.55
2022-12-18T20:24:10.298Z,-5.52
2022-12-18T20:26:37.992Z,-5.59
2022-12-18T20:29:05.152Z,-4.76
2022-12-18T20:31:32.445Z,-5.45
2022-12-18T20:34:01.526Z,-5.59
2022-12-18T20:36:29.601Z,-5.34
2022-12-18T20:39:00.449Z,-4.77
2022-12-18T20:41:31.988Z,-5.53
2022-12-18T20:44:22.910Z,-5.07
2022-12-18T20:46:57.729Z,-5.36
2022-12-18T20:49:26.419Z,-5.62
2022-12-18T20:51:56.209Z,-5.73
2022-12-18T20:54:25.746Z,-5.48
2022-12-18T20:56:52.542Z,-6.21
2022-12-18T20:59:19.666Z,-5.26
2022-12-18T21:01:48.331Z,-5.08
2022-12-18T21:04:18.015Z,-5.69
2022-12-18T21:06:49.408Z,-6.19
2022-12-18T21:09:20.349Z,-6.29
2022-12-18T21:12:05.803Z,-5.96
2022-12-18T21:14:32.629Z,-5.72
2022-12-18T21:17:02.743Z,-5.79
2022-12-18T21:19:29.841Z,-5.05
2022-12-18T21:21:57.595Z,-4.76
2022-12-18T21:24:25.064Z,-5.13
2022-12-18T21:26:52.553Z,-5.26
2022-12-18T21:29:23.356Z,-4.89
2022-12-18T21:31:51.773Z,-5.58
2022-12-18T21:34:27.713Z,-6.19
2022-12-18T21:36:57.204Z,-5.85
2022-12-18T21:39:25.366Z,-4.66
2022-12-18T21:42:10.971Z,-4.92
2022-12-18T21:44:40.167Z,-4.66
2022-12-18T21:47:22.216Z,-4.69
2022-12-18T21:49:52.498Z,-4.88
2022-12-18T21:52:22.465Z,-4.85
2022-12-18T21:55:01.861Z,-4.95
2022-12-18T21:57:31.609Z,-5.36
2022-12-18T21:59:59.408Z,-5.59
2022-12-18T22:02:26.679Z,-4.98
2022-12-18T22:04:53.508Z,-5.44
2022-12-18T22:07:20.658Z,-4.62
2022-12-18T22:09:49.459Z,-4.26
2022-12-18T22:12:35.161Z,-3.89
2022-12-18T22:15:04.862Z,-4.81
2022-12-18T22:17:31.845Z,-5.52
2022-12-18T22:19:58.680Z,-6.23
2022-12-18T22:22:25.506Z,-5.90
2022-12-18T22:24:52.296Z,-5.78
2022-12-18T22:27:19.011Z,-5.77
2022-12-18T22:30:03.999Z,-5.66
2022-12-18T22:32:35.505Z,-4.81
2022-12-18T22:35:12.940Z,-4.99
2022-12-18T22:37:42.308Z,-5.29
2022-12-18T22:40:23.947Z,-5.32
2022-12-18T22:42:52.999Z,-5.06
2022-12-18T22:45:20.323Z,-5.32
2022-12-18T22:47:47.105Z,-5.83
2022-12-18T22:50:14.507Z,-5.48
2022-12-18T22:52:41.304Z,-5.61
2022-12-18T22:55:08.561Z,-5.85
2022-12-18T22:57:35.354Z,-5.42
2022-12-18T23:00:05.644Z,-4.75
2022-12-18T23:02:32.551Z,-4.77
2022-12-18T23:04:59.377Z,-5.34
2022-12-18T23:07:26.130Z,-4.40
2022-12-18T23:09:57.385Z,-5.26
2022-12-18T23:12:28.046Z,-4.74
2022-12-18T23:14:54.794Z,-5.26
2022-12-18T23:17:21.696Z,-5.52
2022-12-18T23:19:49.419Z,-5.76
2022-12-18T23:22:17.723Z,-5.20
2022-12-18T23:24:44.516Z,-4.80
2022-12-18T23:27:11.773Z,-5.11
2022-12-18T23:29:40.110Z,-4.70
2022-12-18T23:32:07.178Z,-4.29
2022-12-18T23:34:33.886Z,-5.12
2022-12-18T23:37:01.051Z,-5.25
2022-12-18T23:39:29.656Z,-5.29
2022-12-18T23:42:00.557Z,-5.22
2022-12-18T23:44:28.060Z,-5.71
2022-12-18T23:46:55.470Z,-5.49
2022-12-18T23:49:22.863Z,-5.54
2022-12-18T23:51:50.115Z,-5.19
2022-12-18T23:54:16.836Z,-5.39
2022-12-18T23:56:43.730Z,-4.97
2022-12-18T23:59:10.548Z,-5.63
